createdAt,value
2022-08-01T00:00:47.921Z,69.29
2022-08-01T00:01:47.907Z,68.89
2022-08-01T00:02:47.917Z,69.09
2022-08-01T00:03:47.896Z,69.20
2022-08-01T00:04:47.892Z,68.89
2022-08-01T00:05:47.864Z,68.70
2022-08-01T00:06:47.910Z,69.39
2022-08-01T00:07:47.841Z,69.69
2022-08-01T00:08:47.848Z,70.19
2022-08-01T00:09:47.853Z,69.69
2022-08-01T00:10:47.815Z,69.89
2022-08-01T00:11:47.796Z,69.69
2022-08-01T00:12:48.836Z,69.49
2022-08-01T00:13:47.774Z,70.09
2022-08-01T00:14:47.786Z,69.79
2022-08-01T00:15:54.096Z,69.89
2022-08-01T00:16:48.741Z,70.39
2022-08-01T00:17:47.738Z,69.69
2022-08-01T00:18:47.714Z,69.89
2022-08-01T00:19:47.767Z,69.89
2022-08-01T00:20:47.697Z,69.69
2022-08-01T00:21:52.010Z,70.03
2022-08-01T00:22:47.680Z,69.73
2022-08-01T00:23:47.687Z,70.32
2022-08-01T00:24:47.682Z,70.53
2022-08-01T00:25:47.650Z,70.32
2022-08-01T00:26:47.625Z,70.32
2022-08-01T00:27:47.675Z,70.83
2022-08-01T00:28:47.604Z,71.62
2022-08-01T00:30:10.756Z,71.22
2022-08-01T00:30:48.612Z,71.52
2022-08-01T00:31:47.572Z,71.72
2022-08-01T00:32:47.575Z,72.42
2022-08-01T00:33:47.553Z,72.32
2022-08-01T00:34:47.578Z,72.62
2022-08-01T00:35:47.532Z,73.42
2022-08-01T00:36:47.538Z,73.42
2022-08-01T00:37:47.505Z,73.32
2022-08-01T00:38:47.492Z,73.42
2022-08-01T00:39:47.490Z,73.92
2022-08-01T00:40:47.476Z,74.32
2022-08-01T00:41:47.450Z,75.82
2022-08-01T00:42:47.458Z,75.46
2022-08-01T00:43:47.459Z,75.82
2022-08-01T00:44:47.424Z,75.76
2022-08-01T00:45:47.414Z,75.76
2022-08-01T00:46:47.475Z,76.15
2022-08-01T00:47:47.397Z,76.56
2022-08-01T00:48:47.488Z,76.95
2022-08-01T00:49:47.373Z,76.95
2022-08-01T00:50:47.355Z,77.06
2022-08-01T00:51:47.433Z,77.75
2022-08-01T00:52:50.072Z,77.69
2022-08-01T00:53:51.736Z,77.69
2022-08-01T00:54:48.331Z,77.95
2022-08-01T00:55:47.298Z,78.19
2022-08-01T00:56:47.280Z,78.49
2022-08-01T00:58:03.089Z,78.99
2022-08-01T00:58:48.271Z,78.99
2022-08-01T00:59:47.252Z,79.59
2022-08-01T01:00:52.430Z,79.39
2022-08-01T01:01:50.033Z,79.39
2022-08-01T01:02:47.222Z,79.59
2022-08-01T01:03:59.902Z,79.49
2022-08-01T01:04:48.222Z,80.19
2022-08-01T01:05:47.248Z,80.23
2022-08-01T01:06:47.176Z,80.69
2022-08-01T01:07:49.567Z,80.29
2022-08-01T01:08:47.156Z,80.03
2022-08-01T01:09:47.146Z,80.99
2022-08-01T01:10:47.162Z,80.83
2022-08-01T01:11:47.127Z,80.33
2022-08-01T01:12:50.149Z,80.89
2022-08-01T01:13:50.106Z,81.83
2022-08-01T01:14:47.083Z,81.83
2022-08-01T01:15:47.132Z,81.03
2022-08-01T01:16:47.076Z,81.03
2022-08-01T01:17:50.034Z,81.43
2022-08-01T01:18:47.034Z,81.73
2022-08-01T01:19:47.025Z,81.43
2022-08-01T01:20:47.011Z,81.83
2022-08-01T01:21:47.015Z,81.13
2022-08-01T01:22:47.009Z,82.33
2022-08-01T01:23:46.990Z,81.93
2022-08-01T01:24:46.968Z,81.73
2022-08-01T01:25:47.013Z,81.93
2022-08-01T01:26:46.946Z,81.83
2022-08-01T01:27:46.936Z,82.43
2022-08-01T01:28:46.944Z,82.03
2022-08-01T01:30:00.437Z,82.03
2022-08-01T01:30:47.898Z,82.43
2022-08-01T01:31:46.890Z,81.93
2022-08-01T01:32:46.875Z,81.93
2022-08-01T01:33:47.309Z,82.33
2022-08-01T01:34:46.981Z,82.03
2022-08-01T01:35:46.843Z,81.23
2022-08-01T01:36:46.830Z,82.13
2022-08-01T01:37:46.864Z,81.73
2022-08-01T01:38:46.833Z,82.13
2022-08-01T01:39:48.195Z,82.13
2022-08-01T01:40:47.792Z,82.03
2022-08-01T01:41:46.872Z,82.13
2022-08-01T01:42:46.756Z,81.73
2022-08-01T01:43:46.760Z,81.93
2022-08-01T01:44:46.850Z,81.93
2022-08-01T01:45:46.733Z,82.53
2022-08-01T01:46:46.717Z,82.03
2022-08-01T01:47:46.816Z,82.13
2022-08-01T01:48:46.793Z,82.33
2022-08-01T01:49:46.704Z,82.13
2022-08-01T01:50:46.672Z,82.03
2022-08-01T01:51:54.171Z,82.13
2022-08-01T01:52:47.659Z,81.73
2022-08-01T01:53:46.644Z,82.03
2022-08-01T01:54:46.643Z,82.33
2022-08-01T01:55:49.513Z,81.93
2022-08-01T01:56:46.600Z,82.33
2022-08-01T01:57:46.606Z,82.33
2022-08-01T01:58:46.582Z,81.83
2022-08-01T01:59:46.594Z,81.93
2022-08-01T02:00:46.575Z,81.73
2022-08-01T02:02:08.729Z,82.33
2022-08-01T02:02:47.643Z,81.93
2022-08-01T02:03:46.546Z,82.43
2022-08-01T02:04:46.534Z,82.13
2022-08-01T02:05:46.504Z,82.33
2022-08-01T02:06:46.490Z,82.03
2022-08-01T02:07:46.477Z,81.93
2022-08-01T02:08:46.480Z,82.13
2022-08-01T02:09:46.477Z,81.83
2022-08-01T02:10:46.495Z,81.87
2022-08-01T02:12:07.605Z,82.43
2022-08-01T02:12:47.424Z,82.23
2022-08-01T02:13:46.410Z,82.07
2022-08-01T02:14:46.436Z,82.03
2022-08-01T02:15:59.433Z,82.37
2022-08-01T02:16:47.379Z,82.57
2022-08-01T02:17:46.359Z,81.97
2022-08-01T02:18:46.377Z,82.37
2022-08-01T02:19:46.353Z,82.57
2022-08-01T02:20:46.360Z,81.87
2022-08-01T02:21:47.323Z,82.37
2022-08-01T02:22:46.320Z,82.07
2022-08-01T02:23:46.300Z,82.37
2022-08-01T02:24:46.316Z,81.97
2022-08-01T02:26:10.872Z,82.47
2022-08-01T02:26:47.266Z,81.97
2022-08-01T02:27:46.258Z,81.87
2022-08-01T02:28:46.250Z,81.97
2022-08-01T02:29:46.256Z,82.41
2022-08-01T02:30:46.221Z,82.27
2022-08-01T02:31:46.214Z,82.31
2022-08-01T02:32:46.294Z,82.41
2022-08-01T02:33:46.186Z,82.41
2022-08-01T02:34:46.187Z,82.67
2022-08-01T02:36:31.175Z,82.61
2022-08-01T02:36:47.155Z,82.61
2022-08-01T02:37:46.939Z,82.61
2022-08-01T02:38:46.177Z,82.51
2022-08-01T02:39:46.138Z,82.51
2022-08-01T02:40:46.111Z,82.51
2022-08-01T02:41:46.106Z,82.71
2022-08-01T02:42:46.094Z,82.91
2022-08-01T02:43:46.074Z,82.81
2022-08-01T02:44:47.163Z,82.81
2022-08-01T02:45:46.057Z,82.81
2022-08-01T02:46:46.044Z,83.51
2022-08-01T02:47:46.029Z,83.81
2022-08-01T02:48:46.022Z,83.71
2022-08-01T02:49:46.259Z,83.91
2022-08-01T02:50:46.099Z,83.71
2022-08-01T02:51:45.986Z,83.81
2022-08-01T02:52:45.977Z,83.41
2022-08-01T02:53:45.966Z,84.11
2022-08-01T02:54:45.957Z,83.61
2022-08-01T02:55:45.955Z,84.11
2022-08-01T02:56:45.949Z,84.21
2022-08-01T02:57:51.582Z,84.21
2022-08-01T02:58:46.949Z,84.11
2022-08-01T02:59:45.910Z,84.05
2022-08-01T03:00:45.888Z,84.05
2022-08-01T03:01:46.081Z,84.05
2022-08-01T03:02:45.861Z,84.21
2022-08-01T03:03:45.855Z,83.95
2022-08-01T03:04:45.845Z,84.05
2022-08-01T03:05:45.889Z,84.25
2022-08-01T03:06:45.826Z,84.55
2022-08-01T03:07:45.851Z,84.75
2022-08-01T03:08:45.794Z,84.35
2022-08-01T03:09:45.792Z,84.45
2022-08-01T03:10:45.810Z,84.55
2022-08-01T03:11:45.760Z,84.85
2022-08-01T03:12:45.754Z,85.05
2022-08-01T03:13:45.800Z,84.65
2022-08-01T03:14:45.729Z,85.35
2022-08-01T03:15:45.718Z,85.85
2022-08-01T03:16:45.709Z,85.55
2022-08-01T03:17:45.695Z,85.75
2022-08-01T03:18:45.730Z,85.75
2022-08-01T03:19:45.694Z,85.55
2022-08-01T03:20:45.656Z,85.75
2022-08-01T03:21:45.649Z,85.75
2022-08-01T03:22:45.641Z,85.96
2022-08-01T03:23:45.628Z,85.85
2022-08-01T03:24:45.680Z,85.96
2022-08-01T03:25:45.614Z,85.75
2022-08-01T03:26:45.600Z,85.75
2022-08-01T03:27:45.586Z,85.66
2022-08-01T03:28:45.583Z,86.05
2022-08-01T03:29:45.596Z,85.55
2022-08-01T03:30:45.558Z,85.96
2022-08-01T03:31:45.551Z,85.85
2022-08-01T03:32:45.572Z,85.96
2022-08-01T03:33:45.515Z,85.85
2022-08-01T03:34:45.514Z,85.55
2022-08-01T03:35:45.491Z,85.89
2022-08-01T03:36:45.483Z,85.99
2022-08-01T03:38:13.088Z,85.55
2022-08-01T03:38:46.496Z,85.80
2022-08-01T03:39:45.469Z,84.69
2022-08-01T03:40:45.449Z,85.05
2022-08-01T03:41:45.425Z,84.95
2022-08-01T03:42:46.687Z,84.79
2022-08-01T03:43:45.404Z,84.75
2022-08-01T03:44:45.412Z,84.75
2022-08-01T03:45:45.384Z,84.75
2022-08-01T03:46:45.407Z,85.35
2022-08-01T03:47:45.361Z,84.85
2022-08-01T03:48:45.351Z,85.35
2022-08-01T03:49:45.360Z,85.46
2022-08-01T03:50:45.323Z,85.66
2022-08-01T03:51:45.333Z,84.65
2022-08-01T03:52:45.363Z,85.05
2022-08-01T03:53:45.300Z,84.85
2022-08-01T03:54:45.300Z,84.95
2022-08-01T03:55:45.329Z,84.85
2022-08-01T03:56:45.257Z,84.85
2022-08-01T03:57:45.251Z,85.05
2022-08-01T03:58:45.237Z,84.65
2022-08-01T03:59:46.321Z,84.75
2022-08-01T04:00:45.214Z,84.75
2022-08-01T04:01:45.289Z,85.46
2022-08-01T04:02:45.194Z,84.85
2022-08-01T04:03:45.192Z,85.75
2022-08-01T04:04:45.175Z,85.55
2022-08-01T04:05:45.164Z,85.85
2022-08-01T04:06:45.157Z,85.66
2022-08-01T04:07:45.246Z,85.46
2022-08-01T04:08:45.126Z,85.75
2022-08-01T04:09:45.118Z,85.66
2022-08-01T04:10:45.124Z,85.46
2022-08-01T04:11:45.099Z,85.41
2022-08-01T04:12:45.083Z,85.55
2022-08-01T04:13:45.094Z,85.51
2022-08-01T04:14:45.099Z,85.91
2022-08-01T04:15:45.052Z,86.01
2022-08-01T04:16:45.036Z,85.85
2022-08-01T04:17:45.037Z,85.51
2022-08-01T04:18:45.035Z,85.85
2022-08-01T04:19:45.008Z,85.91
2022-08-01T04:20:45.054Z,85.82
2022-08-01T04:21:44.980Z,85.61
2022-08-01T04:22:44.977Z,85.71
2022-08-01T04:23:44.980Z,85.61
2022-08-01T04:24:44.946Z,85.91
2022-08-01T04:25:44.932Z,86.11
2022-08-01T04:26:44.922Z,85.51
2022-08-01T04:27:50.919Z,85.31
2022-08-01T04:28:45.966Z,85.31
2022-08-01T04:29:44.892Z,85.41
2022-08-01T04:30:44.887Z,85.61
2022-08-01T04:31:44.870Z,85.91
2022-08-01T04:32:44.858Z,85.91
2022-08-01T04:33:44.897Z,85.61
2022-08-01T04:34:44.845Z,85.71
2022-08-01T04:36:02.490Z,86.01
2022-08-01T04:36:45.811Z,85.91
2022-08-01T04:37:44.805Z,85.71
2022-08-01T04:38:44.812Z,85.91
2022-08-01T04:39:50.701Z,85.71
2022-08-01T04:40:45.770Z,86.01
2022-08-01T04:41:44.800Z,85.71
2022-08-01T04:42:44.744Z,85.82
2022-08-01T04:43:44.739Z,86.01
2022-08-01T04:44:44.742Z,85.82
2022-08-01T04:45:44.745Z,85.91
2022-08-01T04:46:44.710Z,85.82
2022-08-01T04:47:44.683Z,85.31
2022-08-01T04:48:44.731Z,86.21
2022-08-01T04:49:49.016Z,85.82
2022-08-01T04:50:44.657Z,86.41
2022-08-01T04:51:44.642Z,85.91
2022-08-01T04:52:44.633Z,86.01
2022-08-01T04:53:44.621Z,86.32
2022-08-01T04:54:44.631Z,85.82
2022-08-01T04:55:44.662Z,86.21
2022-08-01T04:56:44.592Z,86.52
2022-08-01T04:57:44.581Z,86.71
2022-08-01T04:58:44.565Z,86.61
2022-08-01T04:59:44.577Z,86.41
2022-08-01T05:00:44.553Z,87.02
2022-08-01T05:01:44.560Z,86.71
2022-08-01T05:02:44.517Z,86.91
2022-08-01T05:03:44.551Z,86.71
2022-08-01T05:04:44.516Z,86.41
2022-08-01T05:05:44.491Z,86.91
2022-08-01T05:06:44.478Z,86.91
2022-08-01T05:07:45.416Z,87.52
2022-08-01T05:08:44.456Z,86.82
2022-08-01T05:09:44.557Z,87.02
2022-08-01T05:10:44.430Z,87.02
2022-08-01T05:11:44.422Z,86.91
2022-08-01T05:12:44.414Z,87.21
2022-08-01T05:13:44.401Z,87.32
2022-08-01T05:14:44.393Z,86.91
2022-08-01T05:15:44.390Z,87.52
2022-08-01T05:16:44.423Z,87.41
2022-08-01T05:17:44.351Z,87.52
2022-08-01T05:18:44.345Z,87.62
2022-08-01T05:19:44.345Z,87.62
2022-08-01T05:20:44.336Z,87.82
2022-08-01T05:21:44.318Z,88.21
2022-08-01T05:22:44.314Z,88.32
2022-08-01T05:23:44.355Z,89.12
2022-08-01T05:24:44.279Z,88.62
2022-08-01T05:25:56.158Z,89.52
2022-08-01T05:26:45.278Z,89.82
2022-08-01T05:27:44.244Z,90.12
2022-08-01T05:28:44.224Z,90.62
2022-08-01T05:29:44.734Z,90.62
2022-08-01T05:30:44.204Z,91.02
2022-08-01T05:31:44.193Z,90.77
2022-08-01T05:32:44.193Z,90.72
2022-08-01T05:33:44.195Z,90.62
2022-08-01T05:34:44.171Z,90.42
2022-08-01T05:35:47.906Z,90.22
2022-08-01T05:36:45.139Z,90.22
2022-08-01T05:37:44.131Z,90.12
2022-08-01T05:38:44.131Z,90.86
2022-08-01T05:39:44.108Z,90.77
2022-08-01T05:40:44.098Z,90.46
2022-08-01T05:41:44.082Z,90.66
2022-08-01T05:42:44.116Z,90.66
2022-08-01T05:43:44.064Z,90.86
2022-08-01T05:44:44.061Z,90.77
2022-08-01T05:45:44.037Z,89.66
2022-08-01T05:46:44.033Z,89.62
2022-08-01T05:47:44.009Z,90.02
2022-08-01T05:48:44.024Z,90.06
2022-08-01T05:49:44.014Z,89.82
2022-08-01T05:50:43.990Z,89.82
2022-08-01T05:51:43.967Z,90.02
2022-08-01T05:52:43.953Z,89.62
2022-08-01T05:53:43.945Z,89.72
2022-08-01T05:54:43.947Z,89.42
2022-08-01T05:55:43.951Z,89.62
2022-08-01T05:56:43.919Z,89.52
2022-08-01T05:57:43.952Z,89.42
2022-08-01T05:58:43.883Z,89.42
2022-08-01T05:59:43.893Z,89.12
2022-08-01T06:00:43.865Z,88.62
2022-08-01T06:01:44.903Z,89.42
2022-08-01T06:02:43.937Z,89.52
2022-08-01T06:03:43.895Z,89.12
2022-08-01T06:04:43.877Z,89.02
2022-08-01T06:05:43.816Z,89.42
2022-08-01T06:06:43.800Z,89.22
2022-08-01T06:07:43.839Z,88.82
2022-08-01T06:08:43.789Z,88.92
2022-08-01T06:09:43.777Z,88.82
2022-08-01T06:10:43.823Z,89.42
2022-08-01T06:11:43.747Z,89.28
2022-08-01T06:12:43.748Z,89.32
2022-08-01T06:13:44.977Z,88.57
2022-08-01T06:14:44.734Z,88.52
2022-08-01T06:15:43.751Z,88.52
2022-08-01T06:16:43.692Z,88.48
2022-08-01T06:17:43.675Z,88.48
2022-08-01T06:18:43.678Z,88.52
2022-08-01T06:19:43.653Z,88.18
2022-08-01T06:20:43.666Z,88.42
2022-08-01T06:21:43.632Z,88.28
2022-08-01T06:22:43.622Z,88.37
2022-08-01T06:23:43.688Z,88.48
2022-08-01T06:24:43.601Z,88.37
2022-08-01T06:25:43.586Z,88.62
2022-08-01T06:26:43.595Z,88.28
2022-08-01T06:27:43.571Z,88.48
2022-08-01T06:28:43.554Z,88.48
2022-08-01T06:29:51.192Z,88.57
2022-08-01T06:30:44.523Z,88.48
2022-08-01T06:31:43.545Z,88.18
2022-08-01T06:32:43.524Z,88.28
2022-08-01T06:33:43.491Z,88.28
2022-08-01T06:34:43.485Z,88.28
2022-08-01T06:35:43.479Z,88.48
2022-08-01T06:36:43.472Z,88.28
2022-08-01T06:37:43.451Z,88.57
2022-08-01T06:38:43.453Z,88.37
2022-08-01T06:39:43.434Z,88.48
2022-08-01T06:40:43.486Z,87.98
2022-08-01T06:41:43.410Z,88.18
2022-08-01T06:42:43.398Z,88.37
2022-08-01T06:43:43.376Z,88.57
2022-08-01T06:44:43.403Z,88.48
2022-08-01T06:45:43.355Z,88.33
2022-08-01T06:46:43.347Z,88.18
2022-08-01T06:47:43.332Z,87.63
2022-08-01T06:48:43.389Z,87.83
2022-08-01T06:49:43.328Z,87.83
2022-08-01T06:50:43.302Z,87.73
2022-08-01T06:51:43.287Z,87.93
2022-08-01T06:52:43.283Z,87.93
2022-08-01T06:53:43.981Z,87.34
2022-08-01T06:54:43.363Z,87.83
2022-08-01T06:55:43.241Z,87.39
2022-08-01T06:56:43.226Z,87.73
2022-08-01T06:57:43.353Z,87.13
2022-08-01T06:58:43.219Z,87.13
2022-08-01T06:59:51.830Z,86.93
2022-08-01T07:00:44.257Z,86.83
2022-08-01T07:01:43.210Z,86.93
2022-08-01T07:02:43.164Z,86.93
2022-08-01T07:03:52.822Z,86.79
2022-08-01T07:04:44.151Z,86.69
2022-08-01T07:05:43.130Z,87.19
2022-08-01T07:06:43.121Z,86.59
2022-08-01T07:07:43.190Z,86.09
2022-08-01T07:08:43.097Z,86.29
2022-08-01T07:09:43.097Z,85.79
2022-08-01T07:10:43.079Z,85.99
2022-08-01T07:11:43.083Z,85.49
2022-08-01T07:12:43.052Z,85.39
2022-08-01T07:13:45.544Z,85.19
2022-08-01T07:14:43.128Z,85.19
2022-08-01T07:15:43.009Z,85.19
2022-08-01T07:16:43.011Z,85.79
2022-08-01T07:17:42.990Z,85.99
2022-08-01T07:18:43.022Z,86.09
2022-08-01T07:19:42.979Z,85.49
2022-08-01T07:20:51.185Z,86.19
2022-08-01T07:21:45.301Z,86.29
2022-08-01T07:22:42.963Z,86.09
2022-08-01T07:23:45.819Z,86.09
2022-08-01T07:24:43.382Z,86.33
2022-08-01T07:25:51.671Z,85.79
2022-08-01T07:26:53.248Z,86.19
2022-08-01T07:27:43.873Z,86.09
2022-08-01T07:28:43.930Z,86.13
2022-08-01T07:29:42.877Z,86.39
2022-08-01T07:30:42.844Z,86.09
2022-08-01T07:31:42.836Z,85.89
2022-08-01T07:32:42.837Z,86.09
2022-08-01T07:33:48.687Z,86.59
2022-08-01T07:34:43.923Z,86.49
2022-08-01T07:35:42.787Z,86.39
2022-08-01T07:36:42.784Z,86.19
2022-08-01T07:37:48.946Z,85.99
2022-08-01T07:38:43.749Z,85.79
2022-08-01T07:39:42.749Z,85.89
2022-08-01T07:40:42.725Z,86.09
2022-08-01T07:41:52.964Z,85.83
2022-08-01T07:42:43.712Z,86.29
2022-08-01T07:43:49.304Z,86.03
2022-08-01T07:44:43.702Z,85.89
2022-08-01T07:45:43.872Z,85.73
2022-08-01T07:46:42.674Z,86.33
2022-08-01T07:47:42.647Z,85.83
2022-08-01T07:48:42.655Z,85.23
2022-08-01T07:49:42.697Z,85.83
2022-08-01T07:50:42.616Z,85.83
2022-08-01T07:51:42.603Z,85.23
2022-08-01T07:52:43.634Z,85.23
2022-08-01T07:53:42.584Z,85.43
2022-08-01T07:54:42.570Z,84.83
2022-08-01T07:55:42.570Z,85.09
2022-08-01T07:56:42.547Z,84.59
2022-08-01T07:57:42.548Z,84.79
2022-08-01T07:58:42.523Z,84.79
2022-08-01T07:59:42.545Z,84.19
2022-08-01T08:00:42.575Z,84.09
2022-08-01T08:01:42.527Z,83.95
2022-08-01T08:02:42.473Z,83.95
2022-08-01T08:03:42.511Z,84.05
2022-08-01T08:04:45.792Z,84.45
2022-08-01T08:05:58.723Z,83.95
2022-08-01T08:06:43.464Z,83.75
2022-08-01T08:07:42.421Z,83.95
2022-08-01T08:08:42.413Z,83.75
2022-08-01T08:09:42.389Z,83.55
2022-08-01T08:10:42.394Z,83.75
2022-08-01T08:11:47.119Z,83.95
2022-08-01T08:12:43.364Z,84.15
2022-08-01T08:13:42.368Z,83.35
2022-08-01T08:14:42.346Z,83.55
2022-08-01T08:15:42.326Z,83.65
2022-08-01T08:16:43.351Z,83.95
2022-08-01T08:17:42.353Z,83.55
2022-08-01T08:18:42.293Z,83.55
2022-08-01T08:19:42.288Z,83.95
2022-08-01T08:20:42.279Z,83.79
2022-08-01T08:21:42.339Z,83.29
2022-08-01T08:22:42.276Z,83.39
2022-08-01T08:23:44.043Z,82.89
2022-08-01T08:24:46.492Z,82.99
2022-08-01T08:25:42.304Z,83.49
2022-08-01T08:26:42.210Z,83.69
2022-08-01T08:27:42.202Z,83.69
2022-08-01T08:28:42.200Z,83.49
2022-08-01T08:29:42.175Z,83.29
2022-08-01T08:30:42.207Z,83.69
2022-08-01T08:31:50.779Z,83.39
2022-08-01T08:32:43.149Z,83.49
2022-08-01T08:33:42.125Z,83.59
2022-08-01T08:34:42.152Z,82.85
2022-08-01T08:35:53.759Z,82.95
2022-08-01T08:36:47.725Z,82.71
2022-08-01T08:37:47.548Z,82.41
2022-08-01T08:38:42.075Z,81.81
2022-08-01T08:39:42.465Z,81.67
2022-08-01T08:40:42.063Z,82.07
2022-08-01T08:41:42.034Z,81.27
2022-08-01T08:42:42.025Z,80.27
2022-08-01T08:43:42.017Z,79.64
2022-08-01T08:44:43.658Z,79.84
2022-08-01T08:45:45.078Z,79.34
2022-08-01T08:46:42.973Z,79.34
2022-08-01T08:47:41.973Z,78.84
2022-08-01T08:48:41.953Z,78.64
2022-08-01T08:49:43.553Z,78.60
2022-08-01T08:50:41.943Z,79.50
2022-08-01T08:51:41.972Z,79.20
2022-08-01T08:52:41.919Z,78.60
2022-08-01T08:53:41.913Z,78.84
2022-08-01T08:54:41.883Z,78.54
2022-08-01T08:55:55.445Z,78.04
2022-08-01T08:56:42.869Z,78.04
2022-08-01T08:57:41.922Z,77.74
2022-08-01T08:58:41.898Z,77.55
2022-08-01T08:59:41.848Z,77.98
2022-08-01T09:00:41.824Z,77.44
2022-08-01T09:01:42.810Z,77.64
2022-08-01T09:02:41.976Z,77.44
2022-08-01T09:03:42.039Z,77.68
2022-08-01T09:04:41.800Z,77.94
2022-08-01T09:05:41.773Z,78.04
2022-08-01T09:06:41.818Z,78.44
2022-08-01T09:07:41.807Z,78.11
2022-08-01T09:08:41.734Z,78.00
2022-08-01T09:09:42.080Z,78.20
2022-08-01T09:10:41.709Z,77.61
2022-08-01T09:11:41.695Z,77.81
2022-08-01T09:12:41.701Z,77.47
2022-08-01T09:13:45.218Z,76.67
2022-08-01T09:14:41.721Z,76.83
2022-08-01T09:15:41.671Z,76.24
2022-08-01T09:16:47.996Z,75.60
2022-08-01T09:17:42.632Z,74.90
2022-08-01T09:18:41.645Z,75.50
2022-08-01T09:19:42.061Z,75.31
2022-08-01T09:20:41.598Z,74.60
2022-08-01T09:21:41.623Z,73.91
2022-08-01T09:22:45.025Z,74.41
2022-08-01T09:23:53.306Z,73.81
2022-08-01T09:24:42.561Z,74.01
2022-08-01T09:25:47.896Z,75.31
2022-08-01T09:26:42.528Z,74.51
2022-08-01T09:27:44.336Z,75.31
2022-08-01T09:28:44.971Z,74.57
2022-08-01T09:29:42.508Z,73.77
2022-08-01T09:30:41.546Z,74.77
2022-08-01T09:31:41.476Z,75.27
2022-08-01T09:32:42.454Z,75.07
2022-08-01T09:33:41.452Z,73.97
2022-08-01T09:34:41.460Z,73.97
2022-08-01T09:35:43.802Z,73.97
2022-08-01T09:36:41.424Z,72.88
2022-08-01T09:37:41.401Z,73.18
2022-08-01T09:38:46.193Z,73.47
2022-08-01T09:39:42.430Z,73.77
2022-08-01T09:40:41.366Z,73.08
2022-08-01T09:41:41.364Z,73.28
2022-08-01T09:42:41.343Z,73.28
2022-08-01T09:43:41.353Z,73.08
2022-08-01T09:44:42.637Z,73.21
2022-08-01T09:45:43.803Z,73.81
2022-08-01T09:46:41.354Z,74.80
2022-08-01T09:47:41.296Z,75.64
2022-08-01T09:48:41.281Z,75.64
2022-08-01T09:49:50.665Z,75.54
2022-08-01T09:50:42.257Z,75.44
2022-08-01T09:51:58.984Z,75.34
2022-08-01T09:52:42.286Z,76.43
2022-08-01T09:53:41.215Z,76.24
2022-08-01T09:54:41.209Z,76.67
2022-08-01T09:55:41.219Z,76.97
2022-08-01T09:56:41.185Z,77.47
2022-08-01T09:57:41.180Z,76.97
2022-08-01T09:58:41.240Z,76.57
2022-08-01T09:59:57.742Z,76.97
2022-08-01T10:00:45.704Z,77.57
2022-08-01T10:01:41.129Z,76.77
2022-08-01T10:02:41.137Z,76.57
2022-08-01T10:03:41.208Z,75.71
2022-08-01T10:04:41.120Z,75.67
2022-08-01T10:05:41.092Z,75.81
2022-08-01T10:06:41.635Z,76.41
2022-08-01T10:07:43.781Z,76.81
2022-08-01T10:08:41.056Z,77.11
2022-08-01T10:09:41.311Z,77.51
2022-08-01T10:10:41.026Z,77.31
2022-08-01T10:11:41.023Z,77.61
2022-08-01T10:12:44.468Z,78.20
2022-08-01T10:13:41.060Z,77.70
2022-08-01T10:14:41.097Z,77.31
2022-08-01T10:15:40.989Z,77.31
2022-08-01T10:16:40.966Z,77.61
2022-08-01T10:17:50.333Z,77.40
2022-08-01T10:18:41.971Z,77.40
2022-08-01T10:19:40.959Z,77.44
2022-08-01T10:20:40.995Z,77.64
2022-08-01T10:21:56.713Z,77.44
2022-08-01T10:22:41.890Z,77.64
2022-08-01T10:23:41.362Z,77.64
2022-08-01T10:24:40.895Z,78.44
2022-08-01T10:25:42.289Z,78.54
2022-08-01T10:26:40.883Z,78.84
2022-08-01T10:27:40.949Z,78.54
2022-08-01T10:28:40.821Z,78.74
2022-08-01T10:29:58.970Z,78.78
2022-08-01T10:30:41.817Z,79.48
2022-08-01T10:31:40.796Z,79.68
2022-08-01T10:32:40.812Z,80.18
2022-08-01T10:33:50.653Z,79.97
2022-08-01T10:34:44.829Z,79.78
2022-08-01T10:35:47.802Z,79.38
2022-08-01T10:36:41.735Z,78.48
2022-08-01T10:37:51.874Z,79.58
2022-08-01T10:38:41.827Z,79.08
2022-08-01T10:39:40.711Z,79.38
2022-08-01T10:40:40.697Z,79.17
2022-08-01T10:41:41.632Z,79.48
2022-08-01T10:42:40.678Z,79.28
2022-08-01T10:43:41.461Z,79.17
2022-08-01T10:44:41.658Z,79.34
2022-08-01T10:45:40.639Z,78.74
2022-08-01T10:46:40.666Z,78.64
2022-08-01T10:47:50.695Z,79.24
2022-08-01T10:48:41.595Z,79.14
2022-08-01T10:49:40.662Z,78.54
2022-08-01T10:50:40.706Z,77.91
2022-08-01T10:51:51.486Z,78.14
2022-08-01T10:52:41.559Z,77.94
2022-08-01T10:53:42.984Z,78.24
2022-08-01T10:54:40.546Z,78.24
2022-08-01T10:55:41.529Z,78.20
2022-08-01T10:56:40.514Z,77.61
2022-08-01T10:57:40.512Z,77.31
2022-08-01T10:58:42.165Z,77.11
2022-08-01T10:59:50.931Z,77.34
2022-08-01T11:00:41.471Z,77.40
2022-08-01T11:01:44.974Z,77.51
2022-08-01T11:02:41.439Z,77.31
2022-08-01T11:03:56.540Z,77.25
2022-08-01T11:04:41.433Z,77.11
2022-08-01T11:05:40.403Z,77.55
2022-08-01T11:06:40.411Z,77.55
2022-08-01T11:07:40.463Z,77.61
2022-08-01T11:08:40.381Z,77.51
2022-08-01T11:09:40.369Z,77.17
2022-08-01T11:10:40.362Z,77.31
2022-08-01T11:11:40.343Z,76.77
2022-08-01T11:12:40.330Z,76.87
2022-08-01T11:13:40.332Z,76.77
2022-08-01T11:14:55.352Z,76.07
2022-08-01T11:15:50.478Z,77.27
2022-08-01T11:16:41.280Z,76.64
2022-08-01T11:17:42.575Z,76.34
2022-08-01T11:18:40.264Z,75.64
2022-08-01T11:19:40.276Z,75.78
2022-08-01T11:20:41.993Z,75.78
2022-08-01T11:21:57.381Z,75.74
2022-08-01T11:22:41.224Z,76.67
2022-08-01T11:23:40.206Z,76.77
2022-08-01T11:24:40.208Z,77.67
2022-08-01T11:26:06.165Z,76.27
2022-08-01T11:26:41.172Z,76.17
2022-08-01T11:27:40.168Z,76.77
2022-08-01T11:28:41.200Z,77.47
2022-08-01T11:29:41.150Z,78.70
2022-08-01T11:30:40.134Z,79.20
2022-08-01T11:31:40.118Z,80.80
2022-08-01T11:32:58.965Z,80.80
2022-08-01T11:33:41.095Z,81.93
2022-08-01T11:34:40.095Z,82.14
2022-08-01T11:35:40.088Z,82.28
2022-08-01T11:37:09.769Z,82.67
2022-08-01T11:37:41.049Z,83.37
2022-08-01T11:38:40.038Z,83.87
2022-08-01T11:39:40.059Z,84.47
2022-08-01T11:40:40.015Z,84.51
2022-08-01T11:41:40.000Z,84.31
2022-08-01T11:42:39.992Z,85.11
2022-08-01T11:43:39.983Z,85.71
2022-08-01T11:44:40.024Z,85.81
2022-08-01T11:45:39.952Z,86.21
2022-08-01T11:46:39.964Z,85.91
2022-08-01T11:47:39.938Z,85.15
2022-08-01T11:48:39.933Z,84.41
2022-08-01T11:49:39.970Z,85.21
2022-08-01T11:50:39.910Z,85.31
2022-08-01T11:51:39.887Z,85.31
2022-08-01T11:52:39.935Z,84.61
2022-08-01T11:53:39.866Z,85.41
2022-08-01T11:54:39.870Z,85.07
2022-08-01T11:55:39.838Z,84.67
2022-08-01T11:56:42.965Z,84.07
2022-08-01T11:57:40.840Z,83.97
2022-08-01T11:58:39.811Z,84.23
2022-08-01T11:59:41.175Z,83.73
2022-08-01T12:00:43.853Z,82.34
2022-08-01T12:01:40.847Z,81.00
2022-08-01T12:02:39.937Z,80.83
2022-08-01T12:03:39.747Z,80.04
2022-08-01T12:04:40.758Z,80.10
2022-08-01T12:05:43.243Z,80.10
2022-08-01T12:06:40.677Z,79.80
2022-08-01T12:07:39.716Z,79.40
2022-08-01T12:08:39.695Z,78.37
2022-08-01T12:09:39.788Z,78.86
2022-08-01T12:10:49.484Z,78.07
2022-08-01T12:11:40.669Z,78.37
2022-08-01T12:12:39.662Z,78.67
2022-08-01T12:13:39.661Z,78.53
2022-08-01T12:14:39.641Z,78.23
2022-08-01T12:15:39.617Z,77.73
2022-08-01T12:16:39.675Z,77.43
2022-08-01T12:17:39.599Z,77.23
2022-08-01T12:18:39.586Z,77.83
2022-08-01T12:19:39.595Z,78.03
2022-08-01T12:20:42.771Z,77.83
2022-08-01T12:21:40.542Z,77.97
2022-08-01T12:22:39.543Z,78.43
2022-08-01T12:23:39.589Z,81.22
2022-08-01T12:24:39.538Z,83.35
2022-08-01T12:25:39.499Z,83.65
2022-08-01T12:26:39.495Z,84.15
2022-08-01T12:27:39.502Z,85.05
2022-08-01T12:28:39.468Z,85.09
2022-08-01T12:29:39.481Z,86.08
2022-08-01T12:30:39.462Z,86.82
2022-08-01T12:31:39.437Z,86.72
2022-08-01T12:32:39.420Z,87.32
2022-08-01T12:33:39.414Z,87.12
2022-08-01T12:34:39.468Z,87.76
2022-08-01T12:35:39.390Z,88.56
2022-08-01T12:36:39.385Z,89.06
2022-08-01T12:37:39.368Z,88.86
2022-08-01T12:38:39.359Z,89.16
2022-08-01T12:39:40.192Z,89.22
2022-08-01T12:40:43.370Z,89.62
2022-08-01T12:41:40.330Z,89.82
2022-08-01T12:42:39.323Z,90.12
2022-08-01T12:43:39.352Z,90.42
2022-08-01T12:44:39.315Z,91.17
2022-08-01T12:45:39.285Z,90.67
2022-08-01T12:46:44.104Z,90.53
2022-08-01T12:47:40.251Z,90.43
2022-08-01T12:48:39.245Z,89.23
2022-08-01T12:49:39.407Z,89.14
2022-08-01T12:50:39.232Z,89.00
2022-08-01T12:51:39.229Z,88.40
2022-08-01T12:52:39.193Z,87.70